Time;durP1;ratioP1;P1;durP2;ratioP2;P2;SDS_P1;SDS_P2;PMS_P1;PMS_P2;Temp;Humidity;BMP_temperature;BMP_pressure;BME280_temperature;BME280_humidity;BME280_pressure;Samples;Min_cycle;Max_cycle;Signal;HPM_P1;HPM_P2
2022/11/30 00:04:54;;;;;;;;;;;16.10;73.00;;;;;;10382893;28;20467;-69
2022/11/30 00:09:56;;;;;;;;;;;16.10;72.90;;;;;;10391530;28;19980;-68
2022/11/30 00:14:58;;;;;;;;;;;16.10;72.90;;;;;;10389996;28;19980;-68
2022/11/30 00:20:00;;;;;;;;;;;16.10;72.90;;;;;;10390949;28;19933;-69
2022/11/30 00:25:03;;;;;;;;;;;16.10;72.90;;;;;;10390365;28;20009;-68
2022/11/30 00:30:05;;;;;;;;;;;16.10;72.90;;;;;;10391007;28;20057;-68
2022/11/30 00:35:07;;;;;;;;;;;16.00;72.80;;;;;;10390238;28;19940;-67
2022/11/30 00:40:09;;;;;;;;;;;16.10;72.90;;;;;;10389866;28;20032;-68
2022/11/30 00:45:11;;;;;;;;;;;16.10;72.90;;;;;;10388639;28;20020;-67
2022/11/30 00:50:13;;;;;;;;;;;16.00;72.90;;;;;;10388234;28;19981;-68
2022/11/30 00:55:15;;;;;;;;;;;16.00;72.90;;;;;;10388705;28;19940;-67
2022/11/30 01:00:17;;;;;;;;;;;16.00;72.90;;;;;;10389947;28;19973;-67
2022/11/30 01:05:18;;;;;;;;;;;16.00;73.00;;;;;;10388110;28;20335;-67
2022/11/30 01:10:21;;;;;;;;;;;16.00;72.90;;;;;;10387467;28;19956;-68
2022/11/30 01:15:23;;;;;;;;;;;16.00;72.90;;;;;;10388495;28;19961;-68
2022/11/30 01:20:25;;;;;;;;;;;16.00;72.80;;;;;;10387722;28;19934;-67
2022/11/30 01:25:26;;;;;;;;;;;15.90;72.50;;;;;;10388630;28;20049;-67
2022/11/30 01:30:28;;;;;;;;;;;15.90;72.60;;;;;;10388484;28;20379;-67
2022/11/30 01:35:30;;;;;;;;;;;15.90;72.60;;;;;;10387782;28;20416;-67
2022/11/30 01:40:32;;;;;;;;;;;15.90;72.70;;;;;;10386630;28;20048;-68
2022/11/30 01:45:33;;;;;;;;;;;15.90;72.70;;;;;;10388104;28;20016;-67
2022/11/30 01:50:35;;;;;;;;;;;15.90;72.70;;;;;;10387883;28;20029;-67
2022/11/30 01:55:41;;;;;;;;;;;15.90;72.80;;;;;;10387999;28;19981;-68
2022/11/30 02:06:03;;;;;;;;;;;15.90;72.70;;;;;;10522078;22;19934;-68
2022/11/30 02:11:07;;;;;;;;;;;16.00;72.80;;;;;;10346174;28;20376;-67
2022/11/30 02:16:17;;;;;;;;;;;16.00;72.70;;;;;;10346792;28;19941;-67
2022/11/30 02:21:31;;;;;;;;;;;16.00;72.70;;;;;;10346535;28;20016;-68
2022/11/30 02:26:49;;;;;;;;;;;16.00;72.70;;;;;;10346716;28;20522;-68
2022/11/30 02:32:03;;;;;;;;;;;16.00;72.60;;;;;;10344961;28;19934;-67
2022/11/30 02:37:06;;;;;;;;;;;16.00;72.60;;;;;;10344625;28;20025;-68
2022/11/30 02:42:12;;;;;;;;;;;15.90;72.60;;;;;;10345361;28;20028;-68
2022/11/30 02:47:27;;;;;;;;;;;15.90;72.60;;;;;;10344068;28;19981;-68
2022/11/30 02:52:29;;;;;;;;;;;15.90;72.50;;;;;;10345209;28;20009;-68
2022/11/30 02:57:31;;;;;;;;;;;15.90;72.50;;;;;;10343358;28;19962;-68
2022/11/30 03:02:33;;;;;;;;;;;15.90;72.70;;;;;;10344364;28;20017;-68
2022/11/30 03:07:35;;;;;;;;;;;15.90;72.70;;;;;;10344993;28;20352;-67
2022/11/30 03:12:37;;;;;;;;;;;15.90;72.50;;;;;;10342826;28;19941;-67
2022/11/30 03:17:38;;;;;;;;;;;15.90;72.30;;;;;;10344428;28;20481;-67
2022/11/30 03:22:40;;;;;;;;;;;15.80;72.30;;;;;;10344314;28;19934;-68
2022/11/30 03:27:42;;;;;;;;;;;15.80;72.10;;;;;;10344062;28;20001;-67
2022/11/30 03:32:43;;;;;;;;;;;15.80;72.20;;;;;;10344665;28;20024;-67
2022/11/30 03:37:45;;;;;;;;;;;15.80;72.40;;;;;;10343886;28;20024;-67
2022/11/30 03:42:47;;;;;;;;;;;15.80;72.60;;;;;;10342902;28;20061;-67
2022/11/30 03:47:49;;;;;;;;;;;15.80;72.60;;;;;;10343296;28;19934;-67
2022/11/30 03:52:51;;;;;;;;;;;15.80;72.50;;;;;;10343228;28;19934;-67
2022/11/30 03:57:52;;;;;;;;;;;15.80;72.40;;;;;;10342669;28;20919;-67
2022/11/30 04:02:54;;;;;;;;;;;15.80;72.40;;;;;;10342964;28;20024;-67
2022/11/30 04:07:56;;;;;;;;;;;15.90;72.40;;;;;;10342806;28;19941;-68
2022/11/30 04:12:58;;;;;;;;;;;15.80;72.20;;;;;;10342621;28;19934;-68
2022/11/30 04:17:59;;;;;;;;;;;15.80;72.30;;;;;;10342841;28;20015;-68
2022/11/30 04:23:01;;;;;;;;;;;15.90;72.40;;;;;;10341596;28;20020;-68
2022/11/30 04:28:03;;;;;;;;;;;15.80;72.20;;;;;;10342463;28;20024;-68
2022/11/30 04:33:05;;;;;;;;;;;15.80;72.20;;;;;;10342158;28;19934;-68
2022/11/30 04:38:07;;;;;;;;;;;15.80;72.20;;;;;;10341228;28;19934;-69
2022/11/30 04:43:09;;;;;;;;;;;15.80;72.20;;;;;;10341999;28;19941;-69
2022/11/30 04:48:11;;;;;;;;;;;15.80;72.20;;;;;;10340317;28;20475;-69
2022/11/30 04:53:13;;;;;;;;;;;15.80;71.90;;;;;;10343905;28;20009;-69
2022/11/30 04:58:15;;;;;;;;;;;15.80;71.80;;;;;;10349466;28;20483;-69
2022/11/30 05:03:16;;;;;;;;;;;15.80;71.70;;;;;;10347255;28;20025;-69
2022/11/30 05:08:19;;;;;;;;;;;15.70;71.50;;;;;;10348668;28;20456;-69
2022/11/30 05:13:21;;;;;;;;;;;15.70;71.60;;;;;;10349714;28;19934;-69
2022/11/30 05:18:23;;;;;;;;;;;15.70;71.90;;;;;;10348195;28;20025;-69
2022/11/30 05:23:25;;;;;;;;;;;15.70;72.00;;;;;;10345882;28;20020;-69
2022/11/30 05:28:27;;;;;;;;;;;15.70;71.90;;;;;;10347603;28;19934;-69
2022/11/30 05:33:28;;;;;;;;;;;15.80;71.90;;;;;;10346743;28;19978;-69
2022/11/30 05:38:30;;;;;;;;;;;15.80;71.80;;;;;;10346890;28;19978;-69
2022/11/30 05:43:32;;;;;;;;;;;15.80;71.70;;;;;;10347594;28;20041;-69
2022/11/30 05:48:34;;;;;;;;;;;15.80;71.60;;;;;;10347646;28;20024;-70
2022/11/30 05:53:36;;;;;;;;;;;15.80;71.50;;;;;;10346458;28;20467;-69
2022/11/30 05:58:38;;;;;;;;;;;15.80;71.50;;;;;;10346599;28;20360;-65
2022/11/30 06:03:40;;;;;;;;;;;15.90;71.40;;;;;;10344956;28;19934;-70
2022/11/30 06:08:43;;;;;;;;;;;15.90;71.30;;;;;;10346844;28;19934;-67
2022/11/30 06:13:44;;;;;;;;;;;15.90;71.20;;;;;;10347152;28;19969;-68
2022/11/30 06:18:46;;;;;;;;;;;15.90;71.10;;;;;;10345378;28;20004;-67
2022/11/30 06:23:48;;;;;;;;;;;16.10;71.10;;;;;;10346584;28;20020;-67
2022/11/30 06:28:50;;;;;;;;;;;16.10;71.00;;;;;;10344369;28;19934;-69
2022/11/30 06:33:56;;;;;;;;;;;16.00;70.80;;;;;;10345653;28;19934;-68
2022/11/30 06:38:58;;;;;;;;;;;16.10;70.90;;;;;;10346144;28;19969;-69
2022/11/30 06:44:00;;;;;;;;;;;16.00;70.90;;;;;;10345400;28;19978;-68
2022/11/30 06:49:01;;;;;;;;;;;16.10;71.00;;;;;;10345170;28;20033;-69
2022/11/30 06:54:03;;;;;;;;;;;16.10;70.90;;;;;;10346712;28;19940;-67
2022/11/30 06:59:05;;;;;;;;;;;16.10;71.50;;;;;;10345898;28;19934;-69
2022/11/30 07:04:07;;;;;;;;;;;16.10;71.30;;;;;;10338433;28;19949;-67
2022/11/30 07:09:10;;;;;;;;;;;16.10;71.60;;;;;;10352127;28;19934;-69
2022/11/30 07:14:12;;;;;;;;;;;16.20;71.70;;;;;;10344969;28;19940;-67
2022/11/30 07:19:14;;;;;;;;;;;16.20;71.80;;;;;;10354513;28;19940;-68
2022/11/30 07:29:35;;;;;;;;;;;16.20;71.90;;;;;;10373509;28;20025;-68
2022/11/30 07:34:37;;;;;;;;;;;16.10;72.20;;;;;;10384592;28;20401;-69
2022/11/30 07:39:41;;;;;;;;;;;16.10;71.90;;;;;;10384532;28;19940;-68
2022/11/30 07:44:43;;;;;;;;;;;16.10;71.80;;;;;;10384227;28;20404;-68
2022/11/30 07:49:45;;;;;;;;;;;16.10;71.70;;;;;;10382724;28;19941;-68
2022/11/30 07:54:47;;;;;;;;;;;16.10;71.80;;;;;;10382645;28;20372;-68
2022/11/30 07:59:49;;;;;;;;;;;16.00;72.70;;;;;;10383004;28;19941;-66
2022/11/30 08:04:51;;;;;;;;;;;15.90;71.60;;;;;;10383504;28;20344;-69
2022/11/30 08:09:53;;;;;;;;;;;16.00;71.70;;;;;;10383402;28;19934;-68
2022/11/30 08:14:55;;;;;;;;;;;15.90;71.70;;;;;;10383455;28;20475;-68
2022/11/30 08:20:16;;;;;;;;;;;15.90;71.70;;;;;;10383577;28;19934;-69
2022/11/30 08:25:18;;;;;;;;;;;15.90;71.80;;;;;;10384422;28;19941;-68
2022/11/30 08:30:20;;;;;;;;;;;15.90;71.90;;;;;;10389860;28;19934;-69
2022/11/30 08:35:24;;;;;;;;;;;15.80;71.80;;;;;;10390160;28;20032;-69
2022/11/30 08:40:26;;;;;;;;;;;15.80;71.80;;;;;;10390682;28;19934;-68
2022/11/30 08:45:28;;;;;;;;;;;15.80;71.80;;;;;;10390137;28;20016;-67
2022/11/30 08:50:29;;;;;;;;;;;15.80;71.80;;;;;;10390005;28;20147;-68
2022/11/30 08:55:31;;;;;;;;;;;15.70;71.40;;;;;;10390238;28;20040;-68
2022/11/30 09:00:33;;;;;;;;;;;15.70;71.50;;;;;;10388186;28;20032;-68
2022/11/30 09:05:35;;;;;;;;;;;15.70;71.70;;;;;;10388955;28;19934;-68
2022/11/30 09:10:36;;;;;;;;;;;15.70;71.80;;;;;;10390356;28;20316;-68
2022/11/30 09:15:38;;;;;;;;;;;15.70;71.80;;;;;;10388417;28;20448;-68
2022/11/30 09:20:40;;;;;;;;;;;15.80;71.80;;;;;;10389450;28;19934;-69
2022/11/30 09:25:44;;;;;;;;;;;15.80;71.80;;;;;;10387660;28;19996;-69
2022/11/30 09:30:46;;;;;;;;;;;15.80;71.70;;;;;;10389008;28;19969;-69
2022/11/30 09:35:58;;;;;;;;;;;15.80;71.60;;;;;;10388084;28;19957;-70
2022/11/30 09:41:01;;;;;;;;;;;15.80;71.60;;;;;;10388042;28;19988;-69
2022/11/30 09:46:04;;;;;;;;;;;15.80;71.60;;;;;;10388282;28;19938;-68
2022/11/30 09:51:15;;;;;;;;;;;15.80;71.60;;;;;;10387387;28;20455;-68
2022/11/30 09:56:23;;;;;;;;;;;15.80;71.60;;;;;;10386813;28;20400;-67
2022/11/30 10:01:25;;;;;;;;;;;15.80;71.60;;;;;;10387297;28;19933;-67
2022/11/30 10:06:40;;;;;;;;;;;15.80;71.70;;;;;;10386179;28;19934;-68
2022/11/30 10:11:41;;;;;;;;;;;15.80;71.70;;;;;;10387762;28;20021;-69
2022/11/30 10:16:58;;;;;;;;;;;15.80;71.70;;;;;;10387104;28;20412;-69
2022/11/30 10:22:20;;;;;;;;;;;15.80;71.70;;;;;;10386045;28;20029;-68
2022/11/30 10:27:32;;;;;;;;;;;15.80;71.60;;;;;;10379707;28;20052;-68
2022/11/30 10:32:37;;;;;;;;;;;15.80;71.60;;;;;;10385300;28;20021;-69
2022/11/30 10:37:41;;;;;;;;;;;15.80;71.50;;;;;;10384359;28;19933;-68
2022/11/30 10:42:45;;;;;;;;;;;15.70;71.30;;;;;;10385578;28;19984;-68
2022/11/30 10:48:09;;;;;;;;;;;15.70;71.40;;;;;;10386323;28;19940;-69
2022/11/30 10:53:11;;;;;;;;;;;15.70;71.50;;;;;;10384852;28;19984;-67
2022/11/30 10:58:30;;;;;;;;;;;15.70;71.70;;;;;;10386214;28;20032;-69
2022/11/30 11:03:32;;;;;;;;;;;15.70;71.70;;;;;;10382934;28;20058;-68
2022/11/30 11:08:34;;;;;;;;;;;15.80;71.80;;;;;;10385489;28;19969;-69
2022/11/30 11:13:40;;;;;;;;;;;15.80;71.60;;;;;;10384919;28;19940;-69
2022/11/30 11:18:52;;;;;;;;;;;15.80;71.60;;;;;;10385391;28;20424;-69
2022/11/30 11:23:55;;;;;;;;;;;15.80;71.60;;;;;;10384748;28;20118;-67
2022/11/30 11:29:01;;;;;;;;;;;15.80;71.60;;;;;;10384424;28;20017;-70
2022/11/30 11:34:03;;;;;;;;;;;15.80;71.70;;;;;;10384845;28;19933;-69
2022/11/30 11:39:24;;;;;;;;;;;15.80;71.80;;;;;;10384289;28;20412;-69
2022/11/30 11:44:26;;;;;;;;;;;15.80;71.80;;;;;;10384255;28;19961;-68
2022/11/30 11:49:30;;;;;;;;;;;15.80;71.80;;;;;;10384377;28;19941;-68
2022/11/30 11:54:46;;;;;;;;;;;15.80;71.90;;;;;;10384141;28;20044;-69
2022/11/30 11:59:55;;;;;;;;;;;15.80;71.90;;;;;;10383600;28;19985;-69
2022/11/30 12:05:09;;;;;;;;;;;15.70;71.90;;;;;;10390091;28;19989;-68
2022/11/30 12:10:11;;;;;;;;;;;15.80;72.00;;;;;;10390860;28;19977;-69
2022/11/30 12:15:38;;;;;;;;;;;15.70;72.00;;;;;;10390935;28;19934;-68
2022/11/30 12:20:43;;;;;;;;;;;15.70;72.00;;;;;;10389350;28;19933;-69
2022/11/30 12:25:57;;;;;;;;;;;15.70;71.90;;;;;;10388867;28;20037;-69
2022/11/30 12:31:10;;;;;;;;;;;15.80;72.00;;;;;;10389441;28;19972;-69
2022/11/30 12:36:18;;;;;;;;;;;15.70;72.00;;;;;;10388183;28;20021;-67
2022/11/30 12:41:29;;;;;;;;;;;15.70;71.90;;;;;;10389535;28;19973;-68
2022/11/30 12:46:46;;;;;;;;;;;15.70;72.00;;;;;;10389201;28;20009;-69
2022/11/30 12:51:57;;;;;;;;;;;15.70;72.10;;;;;;10390330;28;20225;-68
2022/11/30 12:57:11;;;;;;;;;;;15.70;72.10;;;;;;10388356;28;20015;-68
2022/11/30 13:02:23;;;;;;;;;;;15.70;72.10;;;;;;10389240;28;19969;-67
2022/11/30 13:07:28;;;;;;;;;;;15.70;72.10;;;;;;10389254;28;20004;-68
2022/11/30 13:12:35;;;;;;;;;;;15.60;72.10;;;;;;10388927;28;19934;-69
2022/11/30 13:17:38;;;;;;;;;;;15.60;72.20;;;;;;10388821;28;19933;-69
2022/11/30 13:23:00;;;;;;;;;;;15.70;72.20;;;;;;10389490;28;19934;-68
2022/11/30 13:28:20;;;;;;;;;;;15.70;72.20;;;;;;10366990;28;20013;-68
2022/11/30 13:33:44;;;;;;;;;;;15.70;73.10;;;;;;10387918;28;20045;-68
2022/11/30 13:38:46;;;;;;;;;;;15.70;72.10;;;;;;10388033;28;20060;-68
2022/11/30 13:43:48;;;;;;;;;;;15.80;72.00;;;;;;10387662;28;20383;-67
2022/11/30 13:49:09;;;;;;;;;;;15.70;72.00;;;;;;10370508;28;19934;-68
2022/11/30 13:54:29;;;;;;;;;;;15.70;71.90;;;;;;10385747;28;20297;-68
2022/11/30 13:59:34;;;;;;;;;;;15.70;71.90;;;;;;10387645;28;19965;-68
2022/11/30 14:04:43;;;;;;;;;;;15.70;71.90;;;;;;10387218;28;19981;-68
2022/11/30 14:09:55;;;;;;;;;;;15.70;71.90;;;;;;10387479;28;20025;-69
2022/11/30 14:14:58;;;;;;;;;;;15.70;71.90;;;;;;10387258;28;20821;-68
2022/11/30 14:20:14;;;;;;;;;;;15.70;71.90;;;;;;10388112;28;20023;-68
2022/11/30 14:25:17;;;;;;;;;;;15.70;71.90;;;;;;10387160;28;20396;-69
2022/11/30 14:30:20;;;;;;;;;;;15.60;71.70;;;;;;10387182;28;19934;-69
2022/11/30 14:35:22;;;;;;;;;;;15.60;71.70;;;;;;10386766;28;20024;-68
2022/11/30 14:40:26;;;;;;;;;;;15.60;71.70;;;;;;10385079;28;20123;-68
2022/11/30 14:45:31;;;;;;;;;;;15.60;71.70;;;;;;10386381;28;19956;-67
2022/11/30 14:50:33;;;;;;;;;;;15.60;71.70;;;;;;10386562;28;20377;-68
2022/11/30 14:55:47;;;;;;;;;;;15.60;71.80;;;;;;10385254;28;20448;-68
2022/11/30 15:00:49;;;;;;;;;;;15.50;71.80;;;;;;10385335;28;19934;-68
2022/11/30 15:05:56;;;;;;;;;;;15.60;72.10;;;;;;10384377;28;19942;-68
2022/11/30 15:11:02;;;;;;;;;;;15.60;72.00;;;;;;10386389;28;20016;-70
2022/11/30 15:16:07;;;;;;;;;;;15.60;72.00;;;;;;10386288;28;20020;-68
2022/11/30 15:21:19;;;;;;;;;;;15.60;71.90;;;;;;10384791;28;19938;-67
2022/11/30 15:26:27;;;;;;;;;;;15.60;71.80;;;;;;10385068;28;19973;-67
2022/11/30 15:31:34;;;;;;;;;;;15.70;71.90;;;;;;10384296;28;20049;-68
2022/11/30 15:36:37;;;;;;;;;;;15.60;71.70;;;;;;10381949;28;20495;-68
2022/11/30 15:41:39;;;;;;;;;;;15.60;71.70;;;;;;10383678;28;20430;-68
2022/11/30 15:46:53;;;;;;;;;;;15.60;71.70;;;;;;10382114;28;19969;-67
2022/11/30 15:52:07;;;;;;;;;;;15.60;71.70;;;;;;10384279;28;20043;-68
2022/11/30 15:57:11;;;;;;;;;;;15.60;71.70;;;;;;10381888;28;19934;-69
2022/11/30 16:02:24;;;;;;;;;;;15.60;71.70;;;;;;10382322;28;19933;-68
2022/11/30 16:07:28;;;;;;;;;;;15.60;71.60;;;;;;10384147;28;20005;-67
2022/11/30 16:12:30;;;;;;;;;;;15.60;71.60;;;;;;10383645;28;20048;-70
2022/11/30 16:17:32;;;;;;;;;;;15.60;71.70;;;;;;10382996;28;20048;-69
2022/11/30 16:22:35;;;;;;;;;;;15.70;71.80;;;;;;10383668;28;20293;-68
2022/11/30 16:27:36;;;;;;;;;;;16.00;71.60;;;;;;10383578;28;19934;-68
2022/11/30 16:32:38;;;;;;;;;;;16.20;71.10;;;;;;10383309;28;19934;-69
2022/11/30 16:37:40;;;;;;;;;;;16.50;70.70;;;;;;10381710;28;20645;-69
2022/11/30 16:42:42;;;;;;;;;;;16.70;70.10;;;;;;10383445;28;19934;-68
2022/11/30 16:47:43;;;;;;;;;;;16.90;69.70;;;;;;10383774;28;20018;-69
2022/11/30 16:52:45;;;;;;;;;;;17.10;69.80;;;;;;10390756;28;20009;-69
2022/11/30 16:57:47;;;;;;;;;;;17.30;70.10;;;;;;10348949;28;19965;-69
2022/11/30 17:02:56;;;;;;;;;;;17.30;71.10;;;;;;10349181;28;19940;-69
2022/11/30 17:07:58;;;;;;;;;;;17.40;73.30;;;;;;10347598;28;20000;-69
2022/11/30 17:13:00;;;;;;;;;;;17.40;73.70;;;;;;10347608;28;19934;-69
2022/11/30 17:18:02;;;;;;;;;;;17.60;74.20;;;;;;10347340;28;19934;-70
2022/11/30 17:23:04;;;;;;;;;;;17.80;74.50;;;;;;10345690;28;20025;-71
2022/11/30 17:28:05;;;;;;;;;;;18.00;74.80;;;;;;10347003;28;20041;-69
2022/11/30 17:33:07;;;;;;;;;;;18.00;73.40;;;;;;10346942;28;19942;-69
2022/11/30 17:38:09;;;;;;;;;;;18.00;72.40;;;;;;10346377;28;20045;-68
2022/11/30 17:43:11;;;;;;;;;;;17.90;71.70;;;;;;10328210;28;20037;-68
2022/11/30 17:48:14;;;;;;;;;;;17.80;71.30;;;;;;10346141;28;19937;-68
2022/11/30 17:53:16;;;;;;;;;;;17.80;71.10;;;;;;10345042;28;20021;-67
2022/11/30 17:58:19;;;;;;;;;;;17.80;71.00;;;;;;10344276;28;19965;-69
2022/11/30 18:03:20;;;;;;;;;;;17.90;70.90;;;;;;10345792;28;19934;-69
2022/11/30 18:08:22;;;;;;;;;;;17.90;70.80;;;;;;10346572;28;19969;-70
2022/11/30 18:13:24;;;;;;;;;;;17.90;70.90;;;;;;10346290;28;19985;-72
2022/11/30 18:18:25;;;;;;;;;;;17.90;71.00;;;;;;10343487;28;19934;-68
2022/11/30 18:23:27;;;;;;;;;;;17.90;71.20;;;;;;10344869;28;19980;-69
2022/11/30 18:28:29;;;;;;;;;;;17.90;71.10;;;;;;10344132;28;19945;-68
2022/11/30 18:33:31;;;;;;;;;;;17.90;71.10;;;;;;10344270;28;19980;-69
2022/11/30 18:38:34;;;;;;;;;;;17.90;70.60;;;;;;10343985;28;20480;-69
2022/11/30 18:43:39;;;;;;;;;;;17.80;70.50;;;;;;10345066;28;19938;-69
2022/11/30 18:48:41;;;;;;;;;;;17.90;70.40;;;;;;10343047;28;20101;-69
2022/11/30 18:53:43;;;;;;;;;;;17.90;70.30;;;;;;10344581;28;20024;-69
2022/11/30 18:58:45;;;;;;;;;;;18.00;70.20;;;;;;10362361;28;20112;-68
2022/11/30 19:03:54;;;;;;;;;;;17.90;70.20;;;;;;10383807;28;19933;-68
2022/11/30 19:08:56;;;;;;;;;;;17.90;70.40;;;;;;10384915;28;19957;-68
2022/11/30 19:13:58;;;;;;;;;;;18.00;70.50;;;;;;10383949;28;19958;-68
2022/11/30 19:19:01;;;;;;;;;;;18.10;70.60;;;;;;10358399;28;19934;-68
2022/11/30 19:24:03;;;;;;;;;;;18.10;70.30;;;;;;10350326;28;20388;-67
2022/11/30 19:29:05;;;;;;;;;;;18.20;70.00;;;;;;10376059;28;20472;-67
2022/11/30 19:34:07;;;;;;;;;;;18.20;69.90;;;;;;10342815;28;20692;-67
2022/11/30 19:39:14;;;;;;;;;;;18.10;69.90;;;;;;10354769;28;19941;-67
2022/11/30 19:44:15;;;;;;;;;;;18.10;69.90;;;;;;10346775;28;20020;-67
2022/11/30 19:49:17;;;;;;;;;;;18.10;70.00;;;;;;10363502;28;19934;-67
2022/11/30 19:54:19;;;;;;;;;;;18.20;70.00;;;;;;10353574;28;20301;-69
2022/11/30 19:59:21;;;;;;;;;;;18.20;69.90;;;;;;10366415;28;19937;-68
2022/11/30 20:04:22;;;;;;;;;;;18.10;70.00;;;;;;10346693;28;19982;-69
2022/11/30 20:09:24;;;;;;;;;;;18.00;70.00;;;;;;10347693;28;19940;-70
2022/11/30 20:14:27;;;;;;;;;;;18.00;70.10;;;;;;10324182;28;19940;-69
2022/11/30 20:19:29;;;;;;;;;;;18.00;70.10;;;;;;10326156;28;19982;-69
2022/11/30 20:24:30;;;;;;;;;;;18.10;70.00;;;;;;10357949;28;19934;-68
2022/11/30 20:29:32;;;;;;;;;;;18.20;69.80;;;;;;10340640;28;20056;-68
2022/11/30 20:34:34;;;;;;;;;;;18.30;69.70;;;;;;10340639;28;19957;-68
2022/11/30 20:39:43;;;;;;;;;;;18.20;70.60;;;;;;10344295;28;20360;-69
2022/11/30 20:44:46;;;;;;;;;;;18.10;69.70;;;;;;10351779;28;19934;-67
2022/11/30 20:49:49;;;;;;;;;;;18.10;69.90;;;;;;10349447;28;19934;-69
2022/11/30 20:54:51;;;;;;;;;;;18.00;70.10;;;;;;10348435;28;20409;-69
2022/11/30 20:59:52;;;;;;;;;;;17.90;70.00;;;;;;10346773;28;19981;-68
2022/11/30 21:04:54;;;;;;;;;;;17.80;70.10;;;;;;10346049;28;20454;-68
2022/11/30 21:09:57;;;;;;;;;;;17.70;70.20;;;;;;10347812;28;19973;-69
2022/11/30 21:14:58;;;;;;;;;;;17.60;70.50;;;;;;10347677;28;20017;-67
2022/11/30 21:20:02;;;;;;;;;;;17.50;70.30;;;;;;10347050;28;26956;-67
2022/11/30 21:25:04;;;;;;;;;;;17.40;70.30;;;;;;10347081;28;19981;-67
2022/11/30 21:30:06;;;;;;;;;;;17.30;70.40;;;;;;10347256;28;19934;-67
2022/11/30 21:35:08;;;;;;;;;;;17.20;70.30;;;;;;10344824;28;19956;-69
2022/11/30 21:40:10;;;;;;;;;;;17.20;70.30;;;;;;10346453;28;19938;-68
2022/11/30 21:45:12;;;;;;;;;;;17.10;70.40;;;;;;10346929;28;20024;-68
2022/11/30 21:50:13;;;;;;;;;;;17.10;70.40;;;;;;10346340;28;20029;-68
2022/11/30 21:55:15;;;;;;;;;;;17.00;70.40;;;;;;10346208;28;19934;-68
2022/11/30 22:00:17;;;;;;;;;;;17.00;70.50;;;;;;10346459;28;19969;-68
2022/11/30 22:05:19;;;;;;;;;;;16.90;70.60;;;;;;10345289;28;20313;-68
2022/11/30 22:10:23;;;;;;;;;;;16.90;71.50;;;;;;10346508;28;20037;-68
2022/11/30 22:15:25;;;;;;;;;;;16.80;70.60;;;;;;10344372;28;19934;-68
2022/11/30 22:20:26;;;;;;;;;;;16.80;70.60;;;;;;10346140;28;19934;-69
2022/11/30 22:25:28;;;;;;;;;;;16.70;70.70;;;;;;10344056;28;20037;-67
2022/11/30 22:30:30;;;;;;;;;;;16.70;70.70;;;;;;10344637;28;19942;-68
2022/11/30 22:35:31;;;;;;;;;;;16.70;70.70;;;;;;10344293;28;20444;-67
2022/11/30 22:40:33;;;;;;;;;;;16.70;70.70;;;;;;10344465;28;20377;-67
2022/11/30 22:45:35;;;;;;;;;;;16.60;70.70;;;;;;10343565;28;19971;-66
2022/11/30 22:50:37;;;;;;;;;;;16.60;70.70;;;;;;10344905;28;19934;-67
2022/11/30 22:55:38;;;;;;;;;;;16.60;70.80;;;;;;10344139;28;19934;-68
2022/11/30 23:00:48;;;;;;;;;;;16.60;70.80;;;;;;10344237;28;19934;-69
2022/11/30 23:05:50;;;;;;;;;;;16.50;70.80;;;;;;10342324;28;19937;-68
2022/11/30 23:10:55;;;;;;;;;;;16.50;70.80;;;;;;10343875;28;20004;-68
2022/11/30 23:15:58;;;;;;;;;;;16.50;70.70;;;;;;10344027;28;20416;-66
2022/11/30 23:21:08;;;;;;;;;;;16.40;70.60;;;;;;10343975;28;20389;-67
2022/11/30 23:26:14;;;;;;;;;;;16.40;70.50;;;;;;10343638;28;19941;-67
2022/11/30 23:31:17;;;;;;;;;;;16.40;70.50;;;;;;10342172;28;19973;-66
2022/11/30 23:36:35;;;;;;;;;;;16.40;70.60;;;;;;10343460;28;19957;-66
2022/11/30 23:41:37;;;;;;;;;;;16.40;70.50;;;;;;10342934;28;19934;-68
2022/11/30 23:46:39;;;;;;;;;;;16.40;70.50;;;;;;10342842;28;19941;-67
2022/11/30 23:51:41;;;;;;;;;;;16.40;70.60;;;;;;10343508;28;20001;-67
2022/11/30 23:56:43;;;;;;;;;;;16.30;70.40;;;;;;10344940;28;20029;-67
